KMFI/MFI METAR and TAF weather

Enter ICAO airport designator
Station Type Date Time Source
KMFI METAR 2022/12/10 01:54 UTC NOAA

KMFI 100154Z AUTO 11012G18KT 10SM OVC014 M02/M05 A3027 RMK AO2 SLP269 T10221050


Station Type Date Time Source
KMFI Decoded METAR 2022/12/10 01:54 UTC NOAA

MARSHFIELD MUNICIPAL AIRPORT, WI, United States (KMFI) 44-38N 90-11W 379M
Dec 09, 2022 - 08:54 PM EST / 2022.12.10 0154 UTC
Wind: from the ESE (110 degrees) at 14 MPH (12 KT) gusting to 21 MPH (18 KT):0
Visibility: 10 mile(s):0
Sky conditions: overcast
Temperature: 28.0 F (-2.2 C)
Windchill: 17 F (-8 C):1
Dew Point: 23.0 F (-5.0 C)
Relative Humidity: 81%
Pressure (altimeter): 30.27 in. Hg (1025 hPa)
ob: KMFI 100154Z AUTO 11012G18KT 10SM OVC014 M02/M05 A3027 RMK AO2 SLP269 T10221050
cycle: 2

Station Type Date Time Source
KMFI TAF UTC NOAA

Error!

Example: see airport list